createdAt,value
2022-10-23T00:01:54.221Z,100999.00
2022-10-23T00:04:22.863Z,100990.84
2022-10-23T00:06:51.067Z,100996.28
2022-10-23T00:09:20.129Z,100988.09
2022-10-23T00:11:48.612Z,100993.56
2022-10-23T00:14:18.177Z,100994.59
2022-10-23T00:16:46.347Z,100988.94
2022-10-23T00:19:14.374Z,100987.28
2022-10-23T00:21:42.250Z,100987.28
2022-10-23T00:26:42.925Z,100995.44
2022-10-23T00:29:11.443Z,100990.00
2022-10-23T00:31:40.676Z,100985.22
2022-10-23T00:34:09.240Z,100987.28
2022-10-23T00:36:37.217Z,100993.56
2022-10-23T00:39:05.176Z,100997.34
2022-10-23T00:41:33.320Z,100980.00
2022-10-23T00:44:07.660Z,100983.34
2022-10-23T00:46:35.541Z,100993.78
2022-10-23T00:49:05.674Z,100987.47
2022-10-23T00:51:37.120Z,100981.19
2022-10-23T00:56:53.010Z,100966.16
2022-10-23T00:59:20.866Z,100976.81
2022-10-23T01:01:49.231Z,100980.16
2022-10-23T01:04:18.799Z,100974.09
2022-10-23T01:06:50.829Z,100966.75
2022-10-23T01:09:20.383Z,100958.41
2022-10-23T01:11:50.899Z,100936.97
2022-10-23T01:14:23.483Z,100961.28
2022-10-23T01:16:56.176Z,100973.03
2022-10-23T01:19:34.184Z,100971.34
2022-10-23T01:22:06.921Z,100970.56
2022-10-23T01:24:43.276Z,100932.56
2022-10-23T01:27:21.808Z,100972.19
2022-10-23T01:29:53.365Z,100973.88
2022-10-23T01:32:25.513Z,100961.13
2022-10-23T01:34:55.814Z,100953.38
2022-10-23T01:37:26.402Z,100951.47
2022-10-23T01:39:56.086Z,100934.72
2022-10-23T01:42:26.901Z,100938.44
2022-10-23T01:44:56.831Z,100935.94
2022-10-23T01:47:26.533Z,100934.88
2022-10-23T01:49:54.675Z,100931.34
2022-10-23T01:52:22.764Z,100936.78
2022-10-23T01:54:51.084Z,100930.13
2022-10-23T01:57:19.331Z,100939.50
2022-10-23T01:59:50.965Z,100928.59
2022-10-23T02:02:18.957Z,100922.31
2022-10-23T02:04:49.056Z,100911.69
2022-10-23T02:07:16.961Z,100912.50
2022-10-23T02:09:45.106Z,100917.13
2022-10-23T02:12:15.328Z,100911.69
2022-10-23T02:14:47.730Z,100823.75
2022-10-23T02:17:18.733Z,100896.16
2022-10-23T02:19:48.742Z,100897.00
2022-10-23T02:22:20.296Z,100903.50
2022-10-23T02:24:50.656Z,100897.22
2022-10-23T02:27:19.811Z,100897.22
2022-10-23T02:29:49.419Z,100902.66
2022-10-23T02:32:18.995Z,100890.72
2022-10-23T02:34:46.864Z,100877.75
2022-10-23T02:37:14.761Z,100887.16
2022-10-23T02:39:42.743Z,100867.53
2022-10-23T02:42:12.540Z,100877.31
2022-10-23T02:44:44.275Z,100856.34
2022-10-23T02:47:20.453Z,100860.97
2022-10-23T02:49:53.104Z,100866.41
2022-10-23T02:52:23.187Z,100862.66
2022-10-23T02:55:05.421Z,100863.69
2022-10-23T02:57:34.218Z,100860.13
2022-10-23T03:00:05.785Z,100820.78
2022-10-23T03:02:38.090Z,100865.38
2022-10-23T03:05:07.286Z,100854.47
2022-10-23T03:07:35.154Z,100849.03
2022-10-23T03:10:03.342Z,100851.50
2022-10-23T03:12:31.192Z,100846.88
2022-10-23T03:14:59.014Z,100847.72
2022-10-23T03:17:26.883Z,100840.59
2022-10-23T03:19:56.439Z,100837.06
2022-10-23T03:22:24.298Z,100824.50
2022-10-23T03:24:52.111Z,100821.53
2022-10-23T03:27:20.135Z,100809.00
2022-10-23T03:29:48.380Z,100804.38
2022-10-23T03:32:16.240Z,100805.19
2022-10-23T03:34:44.149Z,100806.28
2022-10-23T03:37:13.420Z,100810.63
2022-10-23T03:39:41.305Z,100812.31
2022-10-23T03:42:09.269Z,100806.28
2022-10-23T03:44:37.149Z,100804.13
2022-10-23T03:47:05.021Z,100808.75
2022-10-23T03:49:33.198Z,100806.03
2022-10-23T03:52:01.132Z,100810.41
2022-10-23T03:54:30.856Z,100819.44
2022-10-23T03:56:58.807Z,100824.03
2022-10-23T03:59:27.043Z,100825.72
2022-10-23T04:01:55.038Z,100815.88
2022-10-23T04:04:23.060Z,100818.59
2022-10-23T04:06:50.953Z,100826.75
2022-10-23T04:09:19.206Z,100826.53
2022-10-23T04:11:48.456Z,100821.94
2022-10-23T04:14:16.292Z,100812.94
2022-10-23T04:16:44.128Z,100807.47
2022-10-23T04:19:12.329Z,100810.19
2022-10-23T04:21:40.206Z,100818.38
2022-10-23T04:24:08.541Z,100811.88
2022-10-23T04:26:36.419Z,100811.03
2022-10-23T04:29:05.978Z,100813.75
2022-10-23T04:31:33.862Z,100811.25
2022-10-23T04:34:01.779Z,100804.75
2022-10-23T04:36:29.626Z,100789.47
2022-10-23T04:38:57.503Z,100790.53
2022-10-23T04:41:25.474Z,100798.25
2022-10-23T04:43:53.335Z,100791.13
2022-10-23T04:46:22.627Z,100782.13
2022-10-23T04:48:50.799Z,100773.72
2022-10-23T04:51:18.648Z,100778.34
2022-10-23T04:53:46.545Z,100772.91
2022-10-23T04:56:15.148Z,100780.03
2022-10-23T04:58:44.374Z,100777.50
2022-10-23T05:01:12.327Z,100772.91
2022-10-23T05:03:41.685Z,100767.44
2022-10-23T05:06:09.550Z,100772.91
2022-10-23T05:08:37.798Z,100745.25
2022-10-23T05:11:06.157Z,100757.13
2022-10-23T05:13:34.005Z,100754.66
2022-10-23T05:16:01.950Z,100754.41
2022-10-23T05:18:32.161Z,100730.31
2022-10-23T05:21:03.520Z,100753.59
2022-10-23T05:23:31.431Z,100750.84
2022-10-23T05:25:59.305Z,100748.13
2022-10-23T05:28:27.431Z,100749.22
2022-10-23T05:30:55.308Z,100741.88
2022-10-23T05:33:23.155Z,100724.69
2022-10-23T05:35:51.083Z,100730.16
2022-10-23T05:38:20.343Z,100734.75
2022-10-23T05:40:48.251Z,100730.16
2022-10-23T05:43:16.142Z,100732.88
2022-10-23T05:45:44.125Z,100730.16
2022-10-23T05:48:22.796Z,100723.44
2022-10-23T05:51:04.461Z,100716.97
2022-10-23T05:53:36.105Z,100724.44
2022-10-23T05:56:07.153Z,100710.94
2022-10-23T05:58:36.412Z,100727.44
2022-10-23T06:01:06.925Z,100711.91
2022-10-23T06:03:34.928Z,100718.16
2022-10-23T06:06:02.974Z,100707.28
2022-10-23T06:08:31.269Z,100679.13
2022-10-23T06:11:05.851Z,100702.66
2022-10-23T06:13:33.743Z,100703.53
2022-10-23T06:16:01.681Z,100696.84
2022-10-23T06:18:30.868Z,100699.94
2022-10-23T06:20:58.986Z,100688.47
2022-10-23T06:23:26.895Z,100699.09
2022-10-23T06:25:55.818Z,100694.47
2022-10-23T06:28:25.428Z,100686.31
2022-10-23T06:30:53.368Z,100683.59
2022-10-23T06:33:21.421Z,100689.91
2022-10-23T06:35:49.283Z,100680.69
2022-10-23T06:38:17.209Z,100686.97
2022-10-23T06:40:47.041Z,100682.75
2022-10-23T06:43:14.972Z,100658.91
2022-10-23T06:45:44.255Z,100686.31
2022-10-23T06:48:12.415Z,100685.47
2022-10-23T06:50:40.486Z,100683.84
2022-10-23T06:53:08.364Z,100673.78
2022-10-23T06:58:10.760Z,100682.75
2022-10-23T07:00:39.069Z,100681.13
2022-10-23T07:03:09.076Z,100682.75
2022-10-23T07:05:36.971Z,100667.94
2022-10-23T07:08:05.689Z,100675.41
2022-10-23T07:10:33.580Z,100684.69
2022-10-23T07:13:03.155Z,100676.28
2022-10-23T07:15:31.352Z,100674.41
2022-10-23T07:18:00.052Z,100672.69
2022-10-23T07:20:29.488Z,100678.13
2022-10-23T07:22:57.668Z,100675.22
2022-10-23T07:25:26.520Z,100676.06
2022-10-23T07:27:55.433Z,100680.69
2022-10-23T07:30:24.251Z,100677.13
2022-10-23T07:32:52.287Z,100639.25
2022-10-23T07:35:20.443Z,100672.50
2022-10-23T07:37:49.770Z,100676.06
2022-10-23T07:40:18.838Z,100661.59
2022-10-23T07:42:46.747Z,100658.06
2022-10-23T07:45:14.661Z,100653.44
2022-10-23T07:47:42.756Z,100654.50
2022-10-23T07:50:11.199Z,100656.16
2022-10-23T07:52:39.125Z,100644.47
2022-10-23T07:55:09.176Z,100649.88
2022-10-23T07:57:38.761Z,100646.31
2022-10-23T08:00:14.670Z,100647.16
2022-10-23T08:02:42.925Z,100639.16
2022-10-23T08:05:11.073Z,100637.94
2022-10-23T08:07:39.009Z,100646.09
2022-10-23T08:10:10.185Z,100641.47
2022-10-23T08:12:38.654Z,100645.03
2022-10-23T08:15:09.671Z,100642.31
2022-10-23T08:17:39.186Z,100601.94
2022-10-23T08:20:08.257Z,100643.97
2022-10-23T08:22:37.269Z,100634.97
2022-10-23T08:25:05.462Z,100635.81
2022-10-23T08:27:34.748Z,100626.88
2022-10-23T08:30:03.302Z,100631.41
2022-10-23T08:32:31.373Z,100643.38
2022-10-23T08:34:59.285Z,100645.03
2022-10-23T08:37:27.193Z,100646.09
2022-10-23T08:39:56.123Z,100651.53
2022-10-23T08:42:25.045Z,100648.81
2022-10-23T08:44:59.586Z,100642.31
2022-10-23T08:47:30.281Z,100643.38
2022-10-23T08:50:00.238Z,100627.03
2022-10-23T08:52:30.140Z,100628.91
2022-10-23T08:55:04.221Z,100630.59
2022-10-23T08:57:38.785Z,100622.41
2022-10-23T09:00:16.345Z,100600.78
2022-10-23T09:02:45.357Z,100611.34
2022-10-23T09:05:16.247Z,100621.56
2022-10-23T09:07:52.036Z,100612.56
2022-10-23T09:10:27.403Z,100583.97
2022-10-23T09:12:58.203Z,100597.28
2022-10-23T09:15:29.525Z,100590.78
2022-10-23T09:17:59.675Z,100585.34
2022-10-23T09:20:28.435Z,100585.34
2022-10-23T09:22:58.668Z,100586.16
2022-10-23T09:25:27.917Z,100579.66
2022-10-23T09:27:59.113Z,100578.00
2022-10-23T09:30:33.790Z,100576.31
2022-10-23T09:33:01.734Z,100563.31
2022-10-23T09:35:30.776Z,100557.03
2022-10-23T09:37:59.114Z,100508.63
2022-10-23T09:40:30.981Z,100559.53
2022-10-23T09:43:00.278Z,100570.44
2022-10-23T09:45:30.365Z,100564.97
2022-10-23T09:48:11.638Z,100560.34
2022-10-23T09:50:43.395Z,100555.72
2022-10-23T09:53:13.678Z,100555.72
2022-10-23T09:55:41.610Z,100542.09
2022-10-23T09:58:20.903Z,100547.53
2022-10-23T10:00:52.281Z,100544.81
2022-10-23T10:03:24.766Z,100542.34
2022-10-23T10:05:57.378Z,100544.81
2022-10-23T10:08:30.000Z,100534.75
2022-10-23T10:11:01.638Z,100535.66
2022-10-23T10:13:42.321Z,100537.47
2022-10-23T10:16:12.765Z,100534.19
2022-10-23T10:18:43.640Z,100509.66
2022-10-23T10:21:15.041Z,100509.41
2022-10-23T10:23:46.474Z,100505.84
2022-10-23T10:26:20.548Z,100506.94
2022-10-23T10:29:12.033Z,100470.19
2022-10-23T10:31:50.671Z,100506.94
2022-10-23T10:34:25.970Z,100504.22
2022-10-23T10:36:55.791Z,100505.84
2022-10-23T10:39:33.218Z,100453.34
2022-10-23T10:42:08.831Z,100502.31
2022-10-23T10:44:54.679Z,100490.34
2022-10-23T10:47:25.575Z,100486.78
2022-10-23T10:50:01.914Z,100476.72
2022-10-23T10:52:33.426Z,100467.72
2022-10-23T10:55:04.472Z,100456.81
2022-10-23T10:57:33.841Z,100453.03
2022-10-23T11:00:03.242Z,100444.84
2022-10-23T11:02:33.263Z,100442.13
2022-10-23T11:05:06.938Z,100436.69
2022-10-23T11:07:36.029Z,100434.78
2022-10-23T11:10:05.661Z,100379.94
2022-10-23T11:12:33.581Z,100431.25
2022-10-23T11:15:01.513Z,100421.41
2022-10-23T11:17:31.438Z,100448.41
2022-10-23T11:20:02.068Z,100442.13
2022-10-23T11:22:33.982Z,100443.81
2022-10-23T11:25:28.771Z,100443.81
2022-10-23T11:28:10.549Z,100429.22
2022-10-23T11:30:42.686Z,100415.72
2022-10-23T11:33:55.076Z,100375.94
2022-10-23T11:36:51.064Z,100378.91
2022-10-23T11:39:25.905Z,100404.00
2022-10-23T11:41:55.315Z,100396.09
2022-10-23T11:44:39.358Z,100395.81
2022-10-23T11:47:08.141Z,100389.53
2022-10-23T11:49:36.305Z,100392.28
2022-10-23T11:52:05.081Z,100271.19
2022-10-23T11:54:34.365Z,100383.25
2022-10-23T11:57:12.942Z,100379.47
2022-10-23T11:59:54.238Z,100383.25
2022-10-23T12:02:32.766Z,100387.91
2022-10-23T12:05:03.426Z,100359.81
2022-10-23T12:07:32.151Z,100265.16
2022-10-23T12:10:03.083Z,100376.19
2022-10-23T12:12:34.077Z,100368.09
2022-10-23T12:15:20.898Z,100366.91
2022-10-23T12:17:49.617Z,100364.19
2022-10-23T12:20:39.492Z,100351.66
2022-10-23T12:23:27.014Z,100276.63
2022-10-23T12:26:08.865Z,100342.41
2022-10-23T12:28:38.345Z,100344.34
2022-10-23T12:31:15.862Z,100351.66
2022-10-23T12:33:46.086Z,100337.78
2022-10-23T12:36:52.599Z,100344.91
2022-10-23T12:39:27.395Z,100335.66
2022-10-23T12:41:56.769Z,100327.72
2022-10-23T12:44:25.280Z,100323.34
2022-10-23T12:46:55.583Z,100328.56
2022-10-23T12:49:24.899Z,100322.28
2022-10-23T12:51:56.567Z,100315.75
2022-10-23T12:54:24.647Z,100323.94
2022-10-23T12:56:53.143Z,100320.16
2022-10-23T12:59:26.210Z,100258.13
2022-10-23T13:01:54.650Z,100296.47
2022-10-23T13:04:29.545Z,100283.91
2022-10-23T13:06:57.804Z,100294.06
2022-10-23T13:09:29.163Z,100284.25
2022-10-23T13:11:57.075Z,100285.34
2022-10-23T13:14:34.629Z,100291.84
2022-10-23T13:17:03.836Z,100263.06
2022-10-23T13:19:32.005Z,100292.69
2022-10-23T13:21:59.944Z,100287.22
2022-10-23T13:24:28.705Z,100271.94
2022-10-23T13:26:56.963Z,100259.16
2022-10-23T13:32:13.179Z,100255.38
2022-10-23T13:34:41.039Z,100249.91
2022-10-23T13:37:24.446Z,100240.66
2022-10-23T13:40:01.106Z,100235.81
2022-10-23T13:42:29.079Z,100236.63
2022-10-23T13:44:57.019Z,100232.56
2022-10-23T13:47:26.296Z,100234.47
2022-10-23T13:49:54.272Z,100225.84
2022-10-23T13:52:23.440Z,100214.94
2022-10-23T13:54:51.422Z,100200.38
2022-10-23T13:57:19.371Z,100200.25
2022-10-23T13:59:47.277Z,100204.59
2022-10-23T14:02:19.500Z,100199.97
2022-10-23T14:04:49.032Z,100198.09
2022-10-23T14:07:17.122Z,100194.19
2022-10-23T14:09:45.566Z,100216.94
2022-10-23T14:12:13.706Z,100209.59
2022-10-23T14:14:41.668Z,100208.50
2022-10-23T14:17:09.657Z,100197.63
2022-10-23T14:22:11.951Z,100191.09
2022-10-23T14:24:39.850Z,100194.63
2022-10-23T14:27:07.791Z,100186.63
2022-10-23T14:29:36.425Z,100184.81
2022-10-23T14:32:04.520Z,100187.28
2022-10-23T14:34:32.391Z,100180.19
2022-10-23T14:37:15.430Z,100167.38
2022-10-23T14:39:49.584Z,100163.59
2022-10-23T14:42:18.042Z,100161.69
2022-10-23T14:44:46.245Z,100167.13
2022-10-23T14:47:14.229Z,100130.53
2022-10-23T14:49:42.937Z,100178.03
2022-10-23T14:52:10.866Z,100166.31
2022-10-23T14:54:38.897Z,100171.75
2022-10-23T14:57:08.249Z,100165.25
2022-10-23T14:59:36.299Z,100148.91
2022-10-23T15:02:04.193Z,100160.03
2022-10-23T15:04:32.087Z,100179.09
2022-10-23T15:06:59.984Z,100170.09
2022-10-23T15:09:28.379Z,100201.72
2022-10-23T15:11:56.322Z,100186.44
2022-10-23T15:14:25.588Z,100191.91
2022-10-23T15:16:53.544Z,100186.44
2022-10-23T15:19:21.900Z,100203.63
2022-10-23T15:21:49.816Z,100214.28
2022-10-23T15:24:17.713Z,100214.28
2022-10-23T15:26:45.950Z,100232.31
2022-10-23T15:29:15.767Z,100235.25
2022-10-23T15:31:46.927Z,100217.84
2022-10-23T15:34:16.661Z,100228.75
2022-10-23T15:36:44.917Z,100233.97
2022-10-23T15:39:12.989Z,100222.22
2022-10-23T15:41:41.827Z,100210.50
2022-10-23T15:44:10.343Z,100156.50
2022-10-23T15:46:38.337Z,100169.72
2022-10-23T15:49:08.552Z,100200.91
2022-10-23T15:51:37.680Z,100188.94
2022-10-23T15:54:05.865Z,100195.44
2022-10-23T15:56:33.868Z,100208.84
2022-10-23T15:59:02.316Z,100199.00
2022-10-23T16:01:30.459Z,100212.41
2022-10-23T16:03:58.439Z,100218.69
2022-10-23T16:06:27.756Z,100235.03
2022-10-23T16:08:55.973Z,100233.97
2022-10-23T16:11:25.713Z,100234.78
2022-10-23T16:13:54.863Z,100236.69
2022-10-23T16:16:22.846Z,100238.31
2022-10-23T16:18:51.128Z,100225.53
2022-10-23T16:21:20.984Z,100225.28
2022-10-23T16:23:50.498Z,100196.69
2022-10-23T16:26:18.511Z,100215.22
2022-10-23T16:28:47.344Z,100207.03
2022-10-23T16:31:19.376Z,100221.50
2022-10-23T16:33:48.486Z,100224.97
2022-10-23T16:36:16.567Z,100239.50
2022-10-23T16:38:44.443Z,100261.31
2022-10-23T16:41:13.769Z,100271.84
2022-10-23T16:43:41.681Z,100280.03
2022-10-23T16:46:11.923Z,100308.22
2022-10-23T16:48:40.257Z,100316.78
2022-10-23T16:51:08.696Z,100331.09
2022-10-23T16:53:36.704Z,100293.75
2022-10-23T16:56:04.991Z,100263.44
2022-10-23T16:58:34.765Z,100259.97
2022-10-23T17:01:03.603Z,100200.84
2022-10-23T17:03:31.695Z,100144.69
2022-10-23T17:06:03.420Z,100152.63
2022-10-23T17:08:34.281Z,100133.53
2022-10-23T17:11:06.751Z,100160.81
2022-10-23T17:13:36.318Z,100184.50
2022-10-23T17:16:05.938Z,100193.50
2022-10-23T17:18:34.315Z,100210.69
2022-10-23T17:21:02.211Z,100197.88
2022-10-23T17:23:30.155Z,100157.22
2022-10-23T17:25:58.203Z,100166.25
2022-10-23T17:28:26.539Z,100156.19
2022-10-23T17:30:55.856Z,100164.13
2022-10-23T17:33:23.828Z,100165.75
2022-10-23T17:35:52.416Z,100171.19
2022-10-23T17:38:20.291Z,100193.81
2022-10-23T17:40:48.356Z,100212.09
2022-10-23T17:43:16.206Z,100202.84
2022-10-23T17:45:45.054Z,100210.78
2022-10-23T17:48:16.825Z,100214.81
2022-10-23T17:50:44.657Z,100208.06
2022-10-23T17:53:13.037Z,100207.47
2022-10-23T17:55:41.133Z,100202.59
2022-10-23T17:58:09.172Z,100208.06
2022-10-23T18:00:37.209Z,100204.50
2022-10-23T18:03:05.248Z,100197.16
2022-10-23T18:05:34.590Z,100191.09
2022-10-23T18:08:02.813Z,100186.47
2022-10-23T18:10:30.674Z,100182.94
2022-10-23T18:12:58.578Z,100160.47
2022-10-23T18:15:26.432Z,100165.75
2022-10-23T18:17:54.715Z,100180.19
2022-10-23T18:20:22.540Z,100175.84
2022-10-23T18:22:51.891Z,100171.19
2022-10-23T18:25:19.908Z,100160.56
2022-10-23T18:27:47.854Z,100146.09
2022-10-23T18:30:16.181Z,100160.56
2022-10-23T18:32:44.227Z,100148.00
2022-10-23T18:35:12.374Z,100158.06
2022-10-23T18:37:41.513Z,100153.44
2022-10-23T18:40:13.230Z,100163.53
2022-10-23T18:42:41.278Z,100155.34
2022-10-23T18:45:13.043Z,100159.97
2022-10-23T18:47:41.023Z,100157.25
2022-10-23T18:50:10.382Z,100157.25
2022-10-23T18:52:38.811Z,100161.88
2022-10-23T18:55:07.694Z,100159.97
2022-10-23T18:57:37.343Z,100165.44
2022-10-23T19:00:09.370Z,100157.25
2022-10-23T19:02:37.427Z,100162.69
2022-10-23T19:05:05.876Z,100165.66
2022-10-23T19:07:33.820Z,100162.69
2022-10-23T19:10:02.368Z,100141.88
2022-10-23T19:12:30.297Z,100149.66
2022-10-23T19:15:00.340Z,100152.38
2022-10-23T19:17:29.912Z,100146.34
2022-10-23T19:20:00.624Z,100150.72
2022-10-23T19:22:29.050Z,100142.56
2022-10-23T19:24:58.517Z,100144.69
2022-10-23T19:27:26.529Z,100142.78
2022-10-23T19:29:54.900Z,100136.50
2022-10-23T19:32:24.155Z,100139.22
2022-10-23T19:34:52.211Z,100143.06
2022-10-23T19:37:20.044Z,100126.28
2022-10-23T19:39:47.976Z,100157.75
2022-10-23T19:42:15.855Z,100154.19
2022-10-23T19:44:43.719Z,100152.31
2022-10-23T19:47:11.546Z,100164.25
2022-10-23T19:49:41.318Z,100173.28
2022-10-23T19:52:09.173Z,100168.06
2022-10-23T19:54:37.739Z,100164.50
2022-10-23T19:57:05.652Z,100145.66
2022-10-23T19:59:35.861Z,100146.50
2022-10-23T20:02:03.957Z,100149.22
2022-10-23T20:04:31.939Z,100153.03
2022-10-23T20:07:01.358Z,100147.31
2022-10-23T20:09:29.638Z,100143.78
2022-10-23T20:11:57.529Z,100118.59
2022-10-23T20:14:25.417Z,100160.13
2022-10-23T20:16:55.891Z,100138.78
2022-10-23T20:19:24.549Z,100179.19
2022-10-23T20:21:52.396Z,100182.75
2022-10-23T20:24:21.748Z,100202.66
2022-10-23T20:26:50.337Z,100194.91
2022-10-23T20:29:18.674Z,100211.34
2022-10-23T20:31:46.576Z,100231.81
2022-10-23T20:34:14.510Z,100232.88
2022-10-23T20:36:46.412Z,100246.50
2022-10-23T20:39:15.930Z,100251.16
2022-10-23T20:41:45.356Z,100260.13
2022-10-23T20:44:14.006Z,100276.47
2022-10-23T20:46:42.017Z,100264.78
2022-10-23T20:49:10.301Z,100275.66
2022-10-23T20:51:38.209Z,100263.09
2022-10-23T20:54:06.199Z,100263.94
2022-10-23T20:56:34.986Z,100256.81
2022-10-23T20:59:05.296Z,100247.72
2022-10-23T21:01:33.527Z,100254.09
2022-10-23T21:04:02.209Z,100254.09
2022-10-23T21:06:45.403Z,100253.03
2022-10-23T21:09:19.057Z,100245.94
2022-10-23T21:11:46.941Z,100252.22
2022-10-23T21:14:16.207Z,100239.66
2022-10-23T21:16:46.548Z,100244.03
2022-10-23T21:19:15.840Z,100251.38
2022-10-23T21:21:44.019Z,100245.94
2022-10-23T21:24:14.961Z,100250.53
2022-10-23T21:26:42.829Z,100244.25
2022-10-23T21:29:18.637Z,100252.44
2022-10-23T21:31:54.664Z,100246.16
2022-10-23T21:34:22.578Z,100257.91
2022-10-23T21:39:38.325Z,100247.97
2022-10-23T21:42:06.327Z,100262.28
2022-10-23T21:44:34.183Z,100246.66
2022-10-23T21:47:03.486Z,100249.72
2022-10-23T21:49:31.687Z,100249.72
2022-10-23T21:51:59.565Z,100249.72
2022-10-23T21:54:27.474Z,100258.13
2022-10-23T21:56:55.312Z,100258.97
2022-10-23T21:59:25.253Z,100254.34
2022-10-23T22:01:54.739Z,100257.28
2022-10-23T22:04:24.128Z,100251.63
2022-10-23T22:06:52.004Z,100258.97
2022-10-23T22:09:21.035Z,100248.88
2022-10-23T22:11:49.783Z,100244.25
2022-10-23T22:14:17.650Z,100242.59
2022-10-23T22:16:45.574Z,100241.78
2022-10-23T22:19:14.363Z,100210.84
2022-10-23T22:21:43.644Z,100251.84
2022-10-23T22:24:11.654Z,100258.13
2022-10-23T22:26:40.717Z,100251.84
2022-10-23T22:29:09.957Z,100249.13
2022-10-23T22:31:44.158Z,100243.66
2022-10-23T22:34:26.825Z,100245.59
2022-10-23T22:37:10.394Z,100237.91
2022-10-23T22:39:41.157Z,100244.50
2022-10-23T22:42:35.905Z,100242.03
2022-10-23T22:45:21.820Z,100241.22
2022-10-23T22:47:52.823Z,100223.09
2022-10-23T22:50:23.054Z,100226.16
2022-10-23T22:52:55.326Z,100227.97
2022-10-23T22:55:37.148Z,100241.94
2022-10-23T22:58:07.173Z,100232.94
2022-10-23T23:00:42.726Z,100237.56
2022-10-23T23:03:11.610Z,100236.72
2022-10-23T23:08:27.584Z,100234.84
2022-10-23T23:10:58.491Z,100245.72
2022-10-23T23:13:41.208Z,100248.47
2022-10-23T23:16:27.961Z,100204.91
2022-10-23T23:18:56.340Z,100257.47
2022-10-23T23:21:30.176Z,100250.13
2022-10-23T23:24:02.327Z,100258.28
2022-10-23T23:26:30.609Z,100247.63
2022-10-23T23:29:07.334Z,100247.41
2022-10-23T23:31:37.920Z,100243.00
2022-10-23T23:34:08.765Z,100240.28
2022-10-23T23:36:42.688Z,100236.50
2022-10-23T23:39:12.300Z,100239.47
2022-10-23T23:41:42.602Z,100236.97
2022-10-23T23:44:13.494Z,100240.28
2022-10-23T23:46:44.450Z,100226.66
2022-10-23T23:49:15.742Z,100232.13
2022-10-23T23:51:45.472Z,100219.56
2022-10-23T23:54:20.860Z,100212.44
2022-10-23T23:57:01.406Z,100216.81
2022-10-23T23:59:30.919Z,100180.31
